Time;durP1;ratioP1;P1;durP2;ratioP2;P2;SDS_P1;SDS_P2;PMS_P1;PMS_P2;Temp;Humidity;BMP_temperature;BMP_pressure;BME280_temperature;BME280_humidity;BME280_pressure;Samples;Min_cycle;Max_cycle;Signal;HPM_P1;HPM_P2
2021/05/24 00:00:25;;;;;;;16.02;4.90;;;20.00;96.70;;;;;;5099838;28;20051;-79
2021/05/24 00:02:53;;;;;;;10.07;4.15;;;20.10;96.70;;;;;;5100412;27;20036;-78
2021/05/24 00:05:26;;;;;;;12.13;4.90;;;20.10;96.70;;;;;;5101692;28;20028;-78
2021/05/24 00:07:55;;;;;;;18.13;5.57;;;20.10;96.70;;;;;;5100946;28;20043;-78
2021/05/24 00:10:25;;;;;;;13.23;4.72;;;20.10;96.70;;;;;;5098584;27;20894;-78
2021/05/24 00:12:56;;;;;;;9.52;4.60;;;20.10;96.70;;;;;;5093893;28;20055;-78
2021/05/24 00:15:27;;;;;;;12.43;4.88;;;20.10;96.70;;;;;;5100713;27;20056;-79
2021/05/24 00:17:56;;;;;;;14.15;4.93;;;20.10;96.70;;;;;;5107686;27;20063;-78
2021/05/24 00:20:26;;;;;;;11.48;4.50;;;20.10;96.70;;;;;;5102340;27;20050;-79
2021/05/24 00:22:55;;;;;;;11.98;4.35;;;20.10;96.70;;;;;;5100728;27;20130;-78
2021/05/24 00:25:24;;;;;;;13.82;4.32;;;20.10;96.70;;;;;;5097993;28;20117;-79
2021/05/24 00:27:52;;;;;;;9.18;3.83;;;20.10;96.70;;;;;;5095454;28;20053;-79
2021/05/24 00:30:21;;;;;;;13.77;4.20;;;20.10;96.70;;;;;;5099149;27;20048;-80
2021/05/24 00:32:50;;;;;;;8.98;3.97;;;20.10;96.70;;;;;;5100872;28;20489;-80
2021/05/24 00:35:18;;;;;;;9.80;3.88;;;20.00;96.70;;;;;;5101783;27;20035;-80
2021/05/24 00:37:47;;;;;;;10.98;4.18;;;20.00;96.70;;;;;;5085552;28;20039;-80
2021/05/24 00:40:16;;;;;;;11.43;4.10;;;19.90;96.70;;;;;;5095179;28;20114;-80
2021/05/24 00:42:45;;;;;;;12.63;4.00;;;20.00;96.70;;;;;;5082872;27;20043;-80
2021/05/24 00:45:14;;;;;;;11.82;4.10;;;20.00;96.70;;;;;;5098430;27;20046;-80
2021/05/24 00:47:43;;;;;;;10.88;4.22;;;19.90;96.70;;;;;;5101584;27;20044;-80
2021/05/24 00:50:12;;;;;;;10.25;3.85;;;20.00;96.70;;;;;;5080740;28;20048;-80
2021/05/24 00:52:40;;;;;;;10.18;4.05;;;20.00;96.70;;;;;;5099826;28;20039;-80
2021/05/24 00:55:11;;;;;;;8.77;3.33;;;20.00;96.70;;;;;;5098547;27;20047;-80
2021/05/24 00:57:39;;;;;;;11.40;4.43;;;19.90;96.70;;;;;;5099556;28;20044;-80
2021/05/24 01:00:10;;;;;;;14.43;4.63;;;19.90;96.70;;;;;;5100476;27;20522;-80
2021/05/24 01:02:39;;;;;;;10.15;4.22;;;19.80;96.70;;;;;;5097119;28;20605;-80
2021/05/24 01:05:09;;;;;;;11.10;3.92;;;19.70;96.70;;;;;;5100882;27;20505;-79
2021/05/24 01:07:37;;;;;;;11.23;4.20;;;19.60;96.70;;;;;;5099897;27;20043;-80
2021/05/24 01:10:06;;;;;;;9.57;4.07;;;19.50;96.70;;;;;;5099934;27;20070;-79
2021/05/24 01:12:35;;;;;;;8.57;4.18;;;19.50;96.70;;;;;;5081880;28;20130;-79
2021/05/24 01:15:05;;;;;;;16.13;5.43;;;19.50;96.70;;;;;;5097617;28;20035;-80
2021/05/24 01:17:33;;;;;;;11.40;4.57;;;19.50;96.70;;;;;;5099557;28;20390;-80
2021/05/24 01:20:02;;;;;;;8.95;4.13;;;19.60;96.70;;;;;;5099865;27;20056;-80
2021/05/24 01:22:34;;;;;;;8.60;4.25;;;19.50;96.70;;;;;;5104809;27;20044;-80
2021/05/24 01:25:02;;;;;;;11.50;4.63;;;19.50;96.70;;;;;;5100085;28;20520;-80
2021/05/24 01:27:31;;;;;;;11.07;4.32;;;19.50;96.70;;;;;;5098045;28;20482;-80
2021/05/24 01:30:00;;;;;;;10.60;4.63;;;19.50;96.70;;;;;;5094678;28;20668;-80
2021/05/24 01:32:29;;;;;;;15.65;4.68;;;19.50;96.70;;;;;;5100543;28;20521;-80
2021/05/24 01:34:57;;;;;;;10.90;4.60;;;19.50;96.70;;;;;;5097053;28;20066;-79
2021/05/24 01:37:25;;;;;;;16.75;4.28;;;19.50;96.70;;;;;;5079249;28;20502;-80
2021/05/24 01:39:58;;;;;;;14.35;4.40;;;19.50;96.70;;;;;;5101673;28;20036;-80
2021/05/24 01:42:26;;;;;;;10.82;3.58;;;19.60;96.70;;;;;;5102105;28;20039;-80
2021/05/24 01:44:54;;;;;;;10.95;4.72;;;19.50;96.70;;;;;;5101452;28;20046;-79
2021/05/24 01:47:23;;;;;;;9.88;4.30;;;19.50;96.70;;;;;;5101650;28;20096;-80
2021/05/24 01:49:51;;;;;;;11.65;4.90;;;19.50;96.70;;;;;;5097496;28;20035;-80
2021/05/24 01:52:19;;;;;;;11.75;4.65;;;19.40;96.70;;;;;;5100535;28;20393;-80
2021/05/24 01:54:47;;;;;;;9.90;4.30;;;19.40;96.70;;;;;;5081917;28;20540;-80
2021/05/24 01:57:17;;;;;;;10.85;4.13;;;19.50;96.70;;;;;;5103368;27;20080;-80
2021/05/24 01:59:47;;;;;;;9.57;4.40;;;19.50;96.70;;;;;;5100980;27;20039;-80
2021/05/24 02:02:16;;;;;;;10.23;4.35;;;19.50;96.70;;;;;;5102016;27;20174;-80
2021/05/24 02:04:44;;;;;;;11.15;4.47;;;19.50;96.70;;;;;;5110872;27;20032;-80
2021/05/24 02:07:13;;;;;;;10.10;3.70;;;19.40;96.70;;;;;;5082686;28;20089;-80
2021/05/24 02:09:42;;;;;;;11.75;4.43;;;19.50;96.70;;;;;;5102113;27;20073;-79
2021/05/24 02:12:10;;;;;;;9.38;3.75;;;19.50;96.70;;;;;;5102308;27;20501;-79
2021/05/24 02:14:43;;;;;;;10.00;3.92;;;19.50;96.70;;;;;;5085667;28;20035;-80
2021/05/24 02:17:11;;;;;;;9.48;4.10;;;19.40;96.70;;;;;;5097937;28;20500;-79
2021/05/24 02:19:39;;;;;;;10.95;4.25;;;19.40;96.70;;;;;;5106330;27;20047;-80
2021/05/24 02:22:07;;;;;;;10.52;4.43;;;19.40;96.70;;;;;;5084023;27;20071;-80
2021/05/24 02:24:35;;;;;;;9.65;4.03;;;19.30;96.70;;;;;;5102843;28;20054;-79
2021/05/24 02:27:04;;;;;;;13.18;4.50;;;19.20;96.70;;;;;;5107353;27;20031;-80
2021/05/24 02:29:32;;;;;;;11.10;4.32;;;19.20;96.70;;;;;;5100846;28;20117;-80
2021/05/24 02:32:02;;;;;;;12.90;5.22;;;19.10;96.70;;;;;;5098861;28;20036;-80
2021/05/24 02:34:30;;;;;;;7.82;3.63;;;19.10;96.70;;;;;;5085582;28;20043;-79
2021/05/24 02:36:58;;;;;;;9.68;3.90;;;19.00;96.70;;;;;;5108021;27;20385;-80
2021/05/24 02:39:27;;;;;;;11.10;3.95;;;19.00;96.70;;;;;;5103996;27;20497;-80
2021/05/24 02:41:55;;;;;;;7.32;3.92;;;18.90;96.70;;;;;;5102242;28;20040;-79
2021/05/24 02:44:23;;;;;;;8.60;4.07;;;18.90;96.70;;;;;;5102079;28;20040;-80
2021/05/24 02:46:51;;;;;;;13.32;4.75;;;18.90;96.70;;;;;;5103885;28;20388;-79
2021/05/24 02:49:21;;;;;;;8.25;3.97;;;18.80;96.70;;;;;;5101000;28;20051;-79
2021/05/24 02:51:49;;;;;;;7.88;3.90;;;18.70;96.70;;;;;;5105910;27;20077;-80
2021/05/24 02:54:17;;;;;;;10.57;4.25;;;18.70;96.70;;;;;;5084663;28;20044;-78
2021/05/24 02:56:46;;;;;;;9.68;4.28;;;18.80;96.70;;;;;;5100805;28;20062;-79
2021/05/24 02:59:14;;;;;;;8.40;4.50;;;18.70;96.70;;;;;;5100145;27;20059;-78
2021/05/24 03:01:43;;;;;;;13.85;4.43;;;18.70;96.70;;;;;;5105563;27;20445;-80
2021/05/24 03:04:11;;;;;;;10.40;4.13;;;18.80;96.70;;;;;;5102070;28;20035;-78
2021/05/24 03:06:41;;;;;;;9.85;4.57;;;18.80;96.70;;;;;;5102691;28;20146;-78
2021/05/24 03:09:09;;;;;;;10.25;3.97;;;18.80;96.70;;;;;;5103509;27;20404;-78
2021/05/24 03:11:37;;;;;;;9.48;4.35;;;18.80;96.70;;;;;;5103722;27;20042;-78
2021/05/24 03:14:05;;;;;;;9.90;4.45;;;18.80;96.70;;;;;;5100450;27;20054;-78
2021/05/24 03:16:34;;;;;;;9.98;4.20;;;18.70;96.70;;;;;;5103128;27;20063;-78
2021/05/24 03:19:02;;;;;;;7.95;4.25;;;18.70;96.70;;;;;;5084722;28;20044;-78
2021/05/24 03:21:30;;;;;;;5.88;3.38;;;18.70;96.70;;;;;;5102136;28;20122;-78
2021/05/24 03:23:59;;;;;;;8.60;4.07;;;18.60;96.70;;;;;;5083165;27;20075;-78
2021/05/24 03:26:28;;;;;;;7.93;3.33;;;18.50;96.70;;;;;;5101113;28;20064;-78
2021/05/24 03:28:56;;;;;;;7.78;2.97;;;18.40;96.70;;;;;;5084436;28;20047;-78
2021/05/24 03:31:25;;;;;;;5.93;2.63;;;18.30;96.70;;;;;;5102577;27;20122;-78
2021/05/24 03:33:53;;;;;;;5.97;2.88;;;18.20;96.70;;;;;;5083125;28;20150;-78
2021/05/24 03:36:22;;;;;;;7.40;2.80;;;18.10;96.70;;;;;;5099884;27;20035;-78
2021/05/24 03:38:51;;;;;;;6.35;2.35;;;18.20;96.70;;;;;;5100635;28;20043;-78
2021/05/24 03:41:20;;;;;;;5.13;2.63;;;18.00;96.70;;;;;;5106827;27;20075;-78
2021/05/24 03:43:49;;;;;;;5.80;2.33;;;17.80;96.70;;;;;;5098059;27;20139;-78
2021/05/24 03:46:17;;;;;;;7.47;2.72;;;17.80;96.70;;;;;;5103330;27;20039;-78
2021/05/24 03:48:46;;;;;;;5.30;2.45;;;17.80;96.70;;;;;;5100605;27;20049;-78
2021/05/24 03:51:15;;;;;;;5.53;2.70;;;17.70;96.70;;;;;;5098838;28;20074;-78
2021/05/24 03:53:44;;;;;;;5.43;2.42;;;17.70;96.70;;;;;;5100809;28;20131;-78
2021/05/24 03:56:13;;;;;;;5.45;2.10;;;17.70;96.70;;;;;;5098845;27;20104;-78
2021/05/24 03:58:43;;;;;;;7.68;2.28;;;17.60;96.70;;;;;;5101258;28;20042;-78
2021/05/24 04:01:12;;;;;;;7.90;2.08;;;17.50;96.70;;;;;;5101778;27;20063;-78
2021/05/24 04:03:40;;;;;;;4.70;1.95;;;17.50;96.70;;;;;;5100614;28;20054;-78
2021/05/24 04:06:12;;;;;;;5.03;1.90;;;17.50;96.70;;;;;;5097692;28;20048;-78
2021/05/24 04:08:45;;;;;;;5.90;2.05;;;17.40;96.70;;;;;;5100305;27;20043;-78
2021/05/24 04:11:14;;;;;;;7.75;1.98;;;17.50;96.70;;;;;;5098201;28;20045;-78
2021/05/24 04:13:53;;;;;;;2.30;1.35;;;17.60;96.70;;;;;;5100063;27;20043;-78
2021/05/24 04:16:22;;;;;;;4.95;1.83;;;17.50;96.70;;;;;;5101336;27;20035;-78
2021/05/24 04:18:51;;;;;;;5.05;1.63;;;17.50;96.70;;;;;;5102738;27;20464;-78
2021/05/24 04:21:19;;;;;;;2.50;1.67;;;17.40;96.70;;;;;;5101717;27;20080;-78
2021/05/24 04:23:48;;;;;;;2.42;1.60;;;17.40;96.70;;;;;;5105498;27;20043;-78
2021/05/24 04:26:17;;;;;;;5.13;2.05;;;17.60;96.70;;;;;;5087340;28;20063;-78
2021/05/24 04:28:46;;;;;;;4.63;2.00;;;17.60;96.70;;;;;;5099647;27;20416;-78
2021/05/24 04:31:15;;;;;;;7.93;2.30;;;17.60;96.70;;;;;;5097509;28;20414;-78
2021/05/24 04:33:43;;;;;;;7.28;2.22;;;17.60;96.70;;;;;;5099860;28;20473;-78
2021/05/24 04:36:12;;;;;;;6.38;1.88;;;17.50;96.70;;;;;;5099187;27;23641;-78
2021/05/24 04:38:40;;;;;;;2.88;1.48;;;17.40;96.70;;;;;;5103560;27;20050;-78
2021/05/24 04:41:09;;;;;;;5.30;1.85;;;17.50;96.70;;;;;;5083201;28;20152;-78
2021/05/24 04:43:40;;;;;;;4.15;1.50;;;17.60;96.70;;;;;;5102720;27;20055;-78
2021/05/24 04:46:10;;;;;;;5.82;1.70;;;17.70;96.70;;;;;;5100766;27;20039;-77
2021/05/24 04:48:38;;;;;;;3.45;1.85;;;17.70;96.70;;;;;;5085125;28;20071;-77
2021/05/24 04:51:07;;;;;;;4.22;1.90;;;17.50;96.70;;;;;;5101122;27;20047;-78
2021/05/24 04:53:35;;;;;;;5.63;2.00;;;17.50;96.70;;;;;;5101280;27;20554;-78
2021/05/24 04:56:04;;;;;;;4.85;2.08;;;17.50;96.70;;;;;;5102540;27;20654;-78
2021/05/24 04:58:33;;;;;;;4.95;1.85;;;17.40;96.70;;;;;;5100398;27;20043;-78
2021/05/24 05:01:02;;;;;;;3.85;1.67;;;17.60;96.70;;;;;;5096144;28;20044;-78
2021/05/24 05:03:34;;;;;;;4.68;1.80;;;17.70;96.70;;;;;;5079003;28;20134;-78
2021/05/24 05:06:03;;;;;;;3.67;1.80;;;17.70;96.70;;;;;;5072977;28;20036;-78
2021/05/24 05:08:32;;;;;;;4.65;1.55;;;17.50;96.70;;;;;;5083623;28;20051;-78
2021/05/24 05:11:01;;;;;;;5.47;1.77;;;17.40;96.70;;;;;;5102179;27;20445;-79
2021/05/24 05:13:29;;;;;;;5.43;2.53;;;17.20;96.70;;;;;;5097693;28;20043;-78
2021/05/24 05:15:58;;;;;;;4.45;2.38;;;17.00;96.70;;;;;;5098071;28;20445;-78
2021/05/24 05:18:26;;;;;;;5.82;2.55;;;16.80;96.70;;;;;;5083156;28;20130;-78
2021/05/24 05:20:56;;;;;;;7.10;3.47;;;16.60;96.70;;;;;;5082801;28;20100;-78
2021/05/24 05:23:25;;;;;;;5.47;2.38;;;16.60;96.70;;;;;;5099538;28;20046;-78
2021/05/24 05:25:53;;;;;;;6.35;2.10;;;16.70;96.70;;;;;;5098919;28;20485;-78
2021/05/24 05:28:23;;;;;;;3.97;2.10;;;16.80;96.70;;;;;;5079956;28;20051;-78
2021/05/24 05:30:52;;;;;;;4.15;1.85;;;16.90;96.70;;;;;;5096453;28;20047;-78
2021/05/24 05:33:21;;;;;;;3.47;1.75;;;16.90;96.70;;;;;;5097853;28;20047;-78
2021/05/24 05:35:53;;;;;;;4.53;1.90;;;17.10;96.70;;;;;;5103098;28;20504;-78
2021/05/24 05:38:24;;;;;;;3.53;1.95;;;17.10;96.70;;;;;;5102054;28;20627;-78
2021/05/24 05:40:52;;;;;;;6.00;1.98;;;17.20;96.70;;;;;;5099678;28;20089;-78
2021/05/24 05:43:21;;;;;;;4.65;2.10;;;17.20;96.70;;;;;;5098486;28;20039;-78
2021/05/24 05:45:50;;;;;;;6.57;2.22;;;17.30;96.70;;;;;;5098090;28;20122;-78
2021/05/24 05:48:19;;;;;;;4.93;1.83;;;17.20;96.70;;;;;;5095661;28;20442;-78
2021/05/24 05:50:48;;;;;;;4.47;1.50;;;17.20;96.70;;;;;;5083430;28;20569;-78
2021/05/24 05:53:20;;;;;;;4.53;1.80;;;17.10;96.70;;;;;;5080445;28;20449;-78
2021/05/24 05:55:52;;;;;;;3.50;1.40;;;17.00;96.70;;;;;;5076484;28;20573;-77
2021/05/24 05:58:21;;;;;;;3.95;1.77;;;17.10;96.70;;;;;;5097084;28;20084;-78
2021/05/24 06:00:50;;;;;;;4.22;1.30;;;17.00;96.70;;;;;;5096903;28;20047;-77
2021/05/24 06:03:19;;;;;;;8.48;1.60;;;16.90;96.70;;;;;;5099065;28;20441;-77
2021/05/24 06:05:47;;;;;;;3.13;1.40;;;16.90;96.70;;;;;;5099699;28;20040;-77
2021/05/24 06:08:16;;;;;;;3.28;1.17;;;16.80;96.70;;;;;;5081967;28;20039;-77
2021/05/24 06:10:45;;;;;;;5.95;1.60;;;16.80;96.70;;;;;;5099747;28;20047;-77
2021/05/24 06:13:14;;;;;;;2.63;1.35;;;16.80;96.70;;;;;;5097679;28;20474;-77
2021/05/24 06:15:43;;;;;;;3.75;1.40;;;16.80;96.70;;;;;;5099836;28;20130;-77
2021/05/24 06:18:12;;;;;;;3.40;1.60;;;16.80;96.70;;;;;;5097386;28;20510;-77
2021/05/24 06:20:43;;;;;;;2.83;1.50;;;16.80;96.70;;;;;;5101712;28;20077;-77
2021/05/24 06:23:12;;;;;;;6.65;2.45;;;16.70;96.70;;;;;;5100920;28;20574;-77
2021/05/24 06:25:42;;;;;;;4.82;1.80;;;16.70;96.70;;;;;;5098521;28;20059;-77
2021/05/24 06:28:11;;;;;;;5.25;1.25;;;16.70;96.70;;;;;;5098908;28;20545;-78
2021/05/24 06:30:41;;;;;;;3.80;1.50;;;16.80;96.70;;;;;;5097432;28;20036;-77
2021/05/24 06:33:10;;;;;;;3.53;1.27;;;16.90;96.70;;;;;;5071492;28;20036;-77
2021/05/24 06:35:39;;;;;;;5.32;1.38;;;17.00;96.70;;;;;;5098956;28;20043;-77
2021/05/24 06:38:07;;;;;;;7.72;1.67;;;16.90;96.70;;;;;;5106517;28;20481;-77
2021/05/24 06:40:36;;;;;;;6.38;1.77;;;16.90;96.70;;;;;;5098436;28;20095;-77
2021/05/24 06:43:04;;;;;;;4.07;1.73;;;17.00;96.70;;;;;;5086052;28;20470;-77
2021/05/24 06:45:33;;;;;;;4.65;1.90;;;16.90;96.70;;;;;;5101356;27;20077;-77
2021/05/24 06:48:03;;;;;;;6.75;1.60;;;16.90;96.70;;;;;;5104757;27;20027;-78
2021/05/24 06:50:33;;;;;;;5.13;1.92;;;16.80;96.70;;;;;;5103172;27;20465;-77
2021/05/24 06:53:01;;;;;;;5.80;1.73;;;16.80;96.70;;;;;;5101470;28;20039;-77
2021/05/24 06:55:30;;;;;;;6.00;1.60;;;16.50;96.70;;;;;;5103903;27;20055;-78
2021/05/24 06:57:59;;;;;;;3.20;1.50;;;16.50;96.70;;;;;;5098676;27;20074;-78
2021/05/24 07:00:29;;;;;;;6.63;1.75;;;16.30;96.70;;;;;;5100287;28;20040;-78
2021/05/24 07:02:58;;;;;;;9.32;2.03;;;16.50;96.70;;;;;;5107795;27;20040;-75
2021/05/24 07:05:28;;;;;;;3.05;1.27;;;16.70;96.70;;;;;;5084338;28;20043;-75
2021/05/24 07:07:57;;;;;;;2.92;0.98;;;16.80;96.70;;;;;;5104655;27;20523;-77
2021/05/24 07:10:25;;;;;;;3.85;1.38;;;16.90;96.70;;;;;;5099741;27;20085;-76
2021/05/24 07:12:54;;;;;;;3.55;1.40;;;16.90;96.70;;;;;;5101640;28;20054;-76
2021/05/24 07:15:23;;;;;;;3.90;1.50;;;16.90;96.70;;;;;;5102588;27;20032;-76
2021/05/24 07:17:51;;;;;;;3.00;1.23;;;17.00;96.70;;;;;;5103144;28;20124;-77
2021/05/24 07:20:22;;;;;;;2.70;1.17;;;17.20;96.70;;;;;;5100549;28;20040;-77
2021/05/24 07:22:51;;;;;;;3.97;1.98;;;17.20;96.70;;;;;;5104987;27;20047;-77
2021/05/24 07:25:20;;;;;;;4.72;1.52;;;17.30;96.70;;;;;;5100770;28;20052;-77
2021/05/24 07:27:49;;;;;;;4.53;1.50;;;17.30;96.70;;;;;;5101422;28;20450;-78
2021/05/24 07:30:17;;;;;;;4.88;1.45;;;17.20;96.70;;;;;;5086354;28;20050;-77
2021/05/24 07:32:46;;;;;;;3.83;1.70;;;17.20;96.70;;;;;;5104368;27;20477;-77
2021/05/24 07:35:14;;;;;;;3.38;1.60;;;17.10;96.70;;;;;;5105863;27;20046;-77
2021/05/24 07:37:43;;;;;;;4.05;1.48;;;17.10;96.70;;;;;;5101480;28;20541;-77
2021/05/24 07:40:13;;;;;;;4.68;1.75;;;17.10;96.70;;;;;;5102716;27;20127;-78
2021/05/24 07:42:42;;;;;;;4.80;1.40;;;17.20;96.70;;;;;;5102482;27;20047;-77
2021/05/24 07:45:11;;;;;;;3.20;1.75;;;17.30;96.70;;;;;;5103311;27;20043;-78
2021/05/24 07:47:40;;;;;;;5.38;1.73;;;17.40;96.70;;;;;;5095381;27;20510;-77
2021/05/24 07:50:09;;;;;;;4.43;1.90;;;17.40;96.70;;;;;;5095609;28;20039;-78
2021/05/24 07:52:37;;;;;;;5.22;2.40;;;17.30;96.70;;;;;;5098481;28;20051;-78
2021/05/24 07:55:07;;;;;;;3.60;1.70;;;17.50;96.70;;;;;;5103707;27;20643;-78
2021/05/24 07:57:38;;;;;;;4.55;1.80;;;17.50;96.70;;;;;;5102261;27;20039;-78
2021/05/24 08:00:09;;;;;;;5.30;1.90;;;17.60;96.70;;;;;;5097114;27;20058;-77
2021/05/24 08:02:40;;;;;;;5.65;2.08;;;17.60;96.70;;;;;;5088390;28;20054;-77
2021/05/24 08:05:11;;;;;;;4.72;1.58;;;17.70;96.70;;;;;;5100561;28;20563;-79
2021/05/24 08:07:40;;;;;;;5.45;1.70;;;17.80;96.70;;;;;;5099118;27;20040;-77
2021/05/24 08:10:11;;;;;;;5.00;1.77;;;17.90;96.70;;;;;;5106654;27;20135;-77
2021/05/24 08:12:41;;;;;;;4.70;1.73;;;18.00;96.70;;;;;;5103488;27;20523;-76
2021/05/24 08:15:11;;;;;;;7.18;1.85;;;18.10;96.70;;;;;;5099825;28;20414;-77
2021/05/24 08:17:41;;;;;;;6.15;2.10;;;18.20;96.70;;;;;;5102283;27;20120;-77
2021/05/24 08:20:10;;;;;;;4.10;1.92;;;18.30;96.70;;;;;;5101847;27;20043;-77
2021/05/24 08:22:39;;;;;;;3.10;1.85;;;18.40;96.70;;;;;;5098122;28;20405;-77
2021/05/24 08:25:09;;;;;;;3.90;1.88;;;18.40;96.70;;;;;;5100909;28;20042;-78
2021/05/24 08:27:38;;;;;;;5.78;2.25;;;18.30;96.70;;;;;;5101506;27;20150;-77
2021/05/24 08:30:27;;;;;;;3.13;1.55;;;18.30;96.70;;;;;;5098874;27;20039;-77
2021/05/24 08:32:56;;;;;;;3.95;2.03;;;18.20;96.70;;;;;;5103471;27;20336;-78
2021/05/24 08:35:24;;;;;;;3.45;1.92;;;18.00;96.70;;;;;;5088718;28;20070;-78
2021/05/24 08:37:53;;;;;;;5.32;2.08;;;17.90;96.70;;;;;;5102426;27;20067;-77
2021/05/24 08:40:22;;;;;;;5.20;1.60;;;17.80;96.70;;;;;;5101387;27;20520;-77
2021/05/24 08:42:54;;;;;;;3.72;1.80;;;17.80;96.70;;;;;;5101005;27;20042;-78
2021/05/24 08:45:24;;;;;;;4.15;2.00;;;17.80;96.70;;;;;;5100716;27;20043;-77
2021/05/24 08:47:53;;;;;;;5.95;2.13;;;17.80;96.70;;;;;;5100109;28;20046;-78
2021/05/24 08:50:24;;;;;;;6.70;2.15;;;17.80;96.70;;;;;;5100481;27;20520;-78
2021/05/24 08:52:54;;;;;;;3.50;2.00;;;17.80;96.70;;;;;;5101119;27;20424;-78
2021/05/24 08:55:22;;;;;;;4.05;1.88;;;17.70;96.70;;;;;;5097918;27;20060;-78
2021/05/24 08:57:51;;;;;;;3.55;1.70;;;17.60;96.70;;;;;;5099898;28;20044;-78
2021/05/24 09:00:20;;;;;;;5.07;2.05;;;17.60;96.70;;;;;;5099284;28;20063;-77
2021/05/24 09:02:50;;;;;;;6.57;2.90;;;17.60;96.70;;;;;;5101925;27;20055;-78
2021/05/24 09:05:21;;;;;;;3.35;2.25;;;17.60;96.70;;;;;;5102550;27;20043;-78
2021/05/24 09:07:51;;;;;;;5.60;2.58;;;17.50;96.70;;;;;;5084828;28;20058;-77
2021/05/24 09:10:21;;;;;;;9.40;3.35;;;17.60;96.70;;;;;;5099296;27;20422;-78
2021/05/24 09:12:49;;;;;;;4.90;2.65;;;17.70;96.70;;;;;;5100178;27;20468;-77
2021/05/24 09:15:19;;;;;;;7.43;3.30;;;17.80;96.70;;;;;;5099999;27;20035;-77
2021/05/24 09:17:49;;;;;;;6.57;3.00;;;17.90;96.70;;;;;;5105250;27;20035;-78
2021/05/24 09:20:30;;;;;;;7.20;2.50;;;18.10;96.70;;;;;;5098847;28;20047;-78
2021/05/24 09:23:17;;;;;;;4.78;2.67;;;18.20;96.70;;;;;;5097340;28;20036;-78
2021/05/24 09:25:56;;;;;;;5.75;2.88;;;18.40;96.70;;;;;;5100929;28;20039;-78
2021/05/24 09:28:39;;;;;;;5.22;2.65;;;18.50;96.70;;;;;;5097520;27;20043;-78
2021/05/24 09:31:13;;;;;;;5.10;2.30;;;18.60;96.70;;;;;;5098815;27;20130;-77
2021/05/24 09:33:44;;;;;;;6.35;2.38;;;18.60;96.70;;;;;;5082344;28;20048;-78
2021/05/24 09:36:14;;;;;;;4.30;2.20;;;18.60;96.70;;;;;;5087489;28;20048;-78
2021/05/24 09:38:45;;;;;;;5.97;2.70;;;18.60;96.70;;;;;;5099148;27;20051;-78
2021/05/24 09:41:16;;;;;;;7.00;2.67;;;18.60;96.70;;;;;;5097297;28;20043;-78
2021/05/24 09:43:47;;;;;;;6.35;2.72;;;18.60;96.70;;;;;;5086754;28;20059;-78
2021/05/24 09:46:18;;;;;;;7.10;2.72;;;18.70;96.70;;;;;;5103922;28;20059;-78
2021/05/24 09:48:48;;;;;;;5.45;2.40;;;18.80;96.70;;;;;;5101753;28;20103;-77
2021/05/24 09:51:20;;;;;;;3.78;2.08;;;18.80;96.70;;;;;;5097314;28;20047;-77
2021/05/24 09:53:58;;;;;;;4.22;1.98;;;18.80;96.70;;;;;;5100281;28;20285;-78
2021/05/24 09:56:27;;;;;;;3.17;1.75;;;18.70;96.70;;;;;;5099523;28;20048;-78
2021/05/24 09:59:04;;;;;;;5.85;2.60;;;18.80;96.70;;;;;;5100784;28;20036;-77
2021/05/24 10:01:39;;;;;;;4.57;2.05;;;18.90;96.70;;;;;;5097933;28;20062;-78
2021/05/24 10:04:10;;;;;;;6.97;2.55;;;19.10;96.70;;;;;;5099657;28;20460;-78
2021/05/24 10:06:40;;;;;;;6.78;3.03;;;19.10;96.70;;;;;;5102239;28;20642;-78
2021/05/24 10:09:10;;;;;;;9.50;3.22;;;19.20;96.70;;;;;;5083777;28;20043;-78
2021/05/24 10:11:40;;;;;;;6.63;3.30;;;19.20;96.70;;;;;;5102052;28;20464;-78
2021/05/24 10:14:08;;;;;;;6.82;3.05;;;19.40;96.70;;;;;;5098255;28;20040;-77
2021/05/24 10:16:40;;;;;;;6.82;2.72;;;19.40;96.70;;;;;;5098761;27;20116;-78
2021/05/24 10:19:11;;;;;;;4.97;2.22;;;19.40;96.70;;;;;;5103028;28;20088;-78
2021/05/24 10:21:40;;;;;;;5.40;2.30;;;19.50;96.70;;;;;;5100204;28;20043;-78
2021/05/24 10:24:09;;;;;;;4.20;2.38;;;19.50;96.70;;;;;;5106042;27;20050;-78
2021/05/24 10:26:40;;;;;;;6.07;2.50;;;19.50;96.70;;;;;;5102368;28;20506;-78
2021/05/24 10:29:10;;;;;;;6.43;3.25;;;19.50;96.70;;;;;;5107274;27;20138;-79
2021/05/24 10:31:39;;;;;;;6.38;2.65;;;19.60;96.70;;;;;;5101403;28;20059;-78
2021/05/24 10:34:15;;;;;;;6.45;3.40;;;19.60;96.70;;;;;;5102564;27;20075;-79
2021/05/24 10:37:04;;;;;;;6.05;2.80;;;19.60;96.70;;;;;;5101893;27;20046;-78
2021/05/24 10:39:47;;;;;;;6.53;3.40;;;19.70;96.70;;;;;;5101972;28;20544;-78
2021/05/24 10:42:16;;;;;;;10.45;2.95;;;19.90;96.70;;;;;;5102282;27;20042;-78
2021/05/24 10:44:45;;;;;;;5.13;3.25;;;20.10;96.70;;;;;;5106450;27;20035;-78
2021/05/24 10:47:21;;;;;;;5.55;3.28;;;20.10;96.70;;;;;;5103690;27;20050;-78
2021/05/24 10:50:03;;;;;;;10.77;5.22;;;19.90;96.70;;;;;;5101574;28;20051;-78
2021/05/24 10:52:35;;;;;;;6.45;2.95;;;20.00;96.70;;;;;;5100129;28;20112;-78
2021/05/24 10:55:36;;;;;;;5.68;3.05;;;20.00;96.70;;;;;;5102250;28;20050;-78
2021/05/24 10:58:05;;;;;;;9.35;3.15;;;20.00;96.70;;;;;;5101367;28;20523;-78
2021/05/24 11:00:54;;;;;;;5.60;2.60;;;20.10;96.70;;;;;;5103275;27;20130;-78
2021/05/24 11:03:23;;;;;;;4.60;2.50;;;20.10;96.70;;;;;;5100866;28;20051;-79
2021/05/24 11:06:08;;;;;;;3.85;2.20;;;20.20;96.70;;;;;;5101159;28;20036;-78
2021/05/24 11:08:41;;;;;;;7.18;2.63;;;20.10;96.70;;;;;;5104010;27;20357;-78
2021/05/24 11:11:22;;;;;;;4.78;2.42;;;20.20;96.70;;;;;;5100841;27;20040;-78
2021/05/24 11:13:57;;;;;;;6.38;2.53;;;20.20;96.70;;;;;;5105760;27;20046;-79
2021/05/24 11:16:27;;;;;;;5.38;2.70;;;20.30;96.70;;;;;;5103121;28;20122;-78
2021/05/24 11:19:05;;;;;;;5.78;2.72;;;20.40;96.70;;;;;;5102992;27;20109;-78
2021/05/24 11:21:34;;;;;;;6.32;2.75;;;20.50;96.70;;;;;;5102132;27;20234;-78
2021/05/24 11:27:10;;;;;;;6.80;2.90;;;21.10;96.70;;;;;;5095563;27;20044;-78
2021/05/24 11:29:38;;;;;;;7.15;3.13;;;21.50;96.70;;;;;;5085978;27;20169;-79
2021/05/24 11:32:23;;;;;;;4.90;2.60;;;21.60;96.70;;;;;;5103322;28;20387;-79
2021/05/24 11:34:53;;;;;;;9.18;3.30;;;21.60;96.70;;;;;;5096217;28;20473;-78
2021/05/24 11:37:41;;;;;;;4.47;2.40;;;21.70;96.70;;;;;;5104590;27;20043;-79
2021/05/24 11:40:15;;;;;;;5.20;2.72;;;21.90;96.70;;;;;;5102266;27;20123;-78
2021/05/24 11:42:44;;;;;;;9.35;2.65;;;22.00;96.70;;;;;;5100682;28;20061;-78
2021/05/24 11:45:18;;;;;;;7.85;2.85;;;21.90;96.70;;;;;;5099682;27;20124;-77
2021/05/24 11:47:46;;;;;;;7.80;2.72;;;22.00;96.70;;;;;;5084188;28;20599;-77
2021/05/24 11:50:14;;;;;;;5.50;2.45;;;22.00;96.70;;;;;;5100505;28;20134;-78
2021/05/24 11:52:42;;;;;;;6.63;2.50;;;22.00;96.70;;;;;;5101905;27;20143;-77
2021/05/24 11:55:13;;;;;;;7.18;2.47;;;22.00;96.70;;;;;;5101599;28;20397;-78
2021/05/24 11:57:43;;;;;;;5.72;2.10;;;22.00;96.70;;;;;;5099098;27;20405;-78
2021/05/24 12:00:14;;;;;;;5.93;2.55;;;21.90;96.70;;;;;;5105250;27;20046;-77
2021/05/24 12:02:43;;;;;;;6.55;2.78;;;21.80;96.70;;;;;;5103054;27;20048;-77
2021/05/24 12:05:16;;;;;;;5.47;2.38;;;21.70;96.70;;;;;;5103278;27;20118;-77
2021/05/24 12:07:46;;;;;;;6.40;2.78;;;21.60;96.70;;;;;;5101408;28;20035;-77
2021/05/24 12:10:14;;;;;;;6.65;2.63;;;21.60;96.70;;;;;;5104583;27;20042;-78
2021/05/24 12:12:43;;;;;;;8.57;2.65;;;21.60;96.70;;;;;;5103615;27;20043;-78
2021/05/24 12:15:14;;;;;;;4.40;2.08;;;21.60;96.70;;;;;;5099523;28;20039;-78
2021/05/24 12:17:52;;;;;;;4.97;2.10;;;21.50;96.70;;;;;;5098071;28;20405;-78
2021/05/24 12:20:22;;;;;;;5.43;2.17;;;21.50;96.70;;;;;;5083847;28;20572;-77
2021/05/24 12:22:53;;;;;;;7.55;2.08;;;21.50;96.70;;;;;;5101878;27;20124;-78
2021/05/24 12:25:21;;;;;;;7.20;2.58;;;21.50;96.70;;;;;;5101134;28;20101;-78
2021/05/24 12:27:52;;;;;;;6.68;2.28;;;21.50;96.70;;;;;;5098322;28;20036;-77
2021/05/24 12:30:24;;;;;;;5.32;2.28;;;21.40;96.70;;;;;;5080032;28;20071;-78
2021/05/24 12:32:55;;;;;;;8.23;2.80;;;21.40;96.70;;;;;;5098003;28;20139;-78
2021/05/24 12:35:27;;;;;;;5.57;2.38;;;21.40;96.70;;;;;;5088409;28;20492;-78
2021/05/24 12:38:06;;;;;;;5.50;2.63;;;21.40;96.70;;;;;;5100983;27;20077;-78
2021/05/24 12:40:34;;;;;;;5.80;2.88;;;21.40;96.70;;;;;;5104070;27;20104;-78
2021/05/24 12:43:04;;;;;;;6.72;2.20;;;21.40;96.70;;;;;;5100832;28;20039;-78
2021/05/24 12:45:33;;;;;;;4.03;2.30;;;21.20;96.70;;;;;;5098907;27;21179;-77
2021/05/24 12:48:15;;;;;;;4.57;2.25;;;21.30;96.70;;;;;;5097009;28;20518;-76
2021/05/24 12:50:46;;;;;;;7.93;2.50;;;21.20;96.70;;;;;;5101964;27;20603;-76
2021/05/24 12:53:16;;;;;;;7.22;2.05;;;21.10;96.70;;;;;;5094959;27;20130;-76
2021/05/24 12:55:45;;;;;;;3.97;2.10;;;21.00;96.70;;;;;;5095892;28;20056;-76
2021/05/24 12:58:16;;;;;;;9.10;3.20;;;20.90;96.70;;;;;;5107725;27;20028;-77
2021/05/24 13:00:46;;;;;;;4.53;2.20;;;20.80;96.70;;;;;;5099907;28;20079;-77
2021/05/24 13:03:18;;;;;;;6.47;2.25;;;20.70;96.70;;;;;;5095335;28;20035;-77